PASN/SNP METAR and TAF weather

Enter ICAO airport designator
Station Type Date Time Source
PASN METAR 2019/04/25 15:53 UTC NOAA

PASN 251553Z AUTO 01005KT 3SM -SN BR OVC016 M02/M04 A3028 RMK AO2 SNB26 SLP256 P0002 T10221044 TSNO $


Station Type Date Time Source
PASN Decoded METAR 2019/04/25 15:53 UTC NOAA

ST PAUL ISLAND AIRPORT, AK, United States (PASN) 57-10N 170-13W 9M
Apr 25, 2019 - 11:53 AM EDT / 2019.04.25 1553 UTC
Wind: from the N (010 degrees) at 6 MPH (5 KT):0
Visibility: 3 mile(s):0
Sky conditions: overcast
Weather: light snow; mist
Precipitation last hour: 0.02 inches
Temperature: 28.0 F (-2.2 C)
Windchill: 21 F (-6 C):1
Dew Point: 24.1 F (-4.4 C)
Relative Humidity: 84%
Pressure (altimeter): 30.28 in. Hg (1025 hPa)
ob: PASN 251553Z AUTO 01005KT 3SM -SN BR OVC016 M02/M04 A3028 RMK AO2 SNB26 SLP256 P0002 T10221044 TSNO
cycle: 16

Station Type Date Time Source
PASN TAF 2019/04/25 12:27 UTC NOAA

TAF PASN 251124Z 2512/2612 01011KT P6SM VCSH SCT015 OVC025
FM260000 02009KT P6SM SCT015 OVC025

Example: see airport list